createdAt,value
2022-08-19T00:00:01.645Z,68.90
2022-08-19T00:03:09.917Z,68.80
2022-08-19T00:06:15.066Z,69.50
2022-08-19T00:09:28.474Z,69.00
2022-08-19T00:12:33.540Z,69.00
2022-08-19T00:15:45.785Z,69.10
2022-08-19T00:18:51.437Z,69.10
2022-08-19T00:21:57.285Z,69.10
2022-08-19T00:25:04.912Z,69.20
2022-08-19T00:28:09.898Z,69.30
2022-08-19T00:31:14.992Z,69.30
2022-08-19T00:34:20.104Z,69.30
2022-08-19T00:37:27.005Z,69.40
2022-08-19T00:40:34.564Z,69.40
2022-08-19T00:43:39.866Z,69.50
2022-08-19T00:46:55.644Z,69.50
2022-08-19T00:50:03.874Z,69.60
2022-08-19T00:53:09.978Z,69.70
2022-08-19T00:56:19.799Z,69.70
2022-08-19T00:59:56.168Z,69.70
2022-08-19T01:02:50.045Z,69.80
2022-08-19T01:05:57.586Z,69.80
2022-08-19T01:09:03.584Z,70.00
2022-08-19T01:12:11.969Z,70.00
2022-08-19T01:15:22.172Z,70.20
2022-08-19T01:18:28.855Z,70.20
2022-08-19T01:21:37.542Z,70.20
2022-08-19T01:24:46.741Z,70.40
2022-08-19T01:27:56.639Z,70.40
2022-08-19T01:31:08.117Z,70.40
2022-08-19T01:34:13.392Z,70.50
2022-08-19T01:37:24.884Z,70.50
2022-08-19T01:40:36.489Z,70.60
2022-08-19T01:44:13.457Z,70.70
2022-08-19T01:47:07.861Z,70.70
2022-08-19T01:50:14.751Z,70.80
2022-08-19T01:53:19.954Z,70.80
2022-08-19T01:56:28.006Z,70.80
2022-08-19T01:59:37.522Z,70.90
2022-08-19T02:02:51.339Z,71.00
2022-08-19T02:06:01.830Z,71.00
2022-08-19T02:09:09.127Z,71.20
2022-08-19T02:12:17.343Z,71.20
2022-08-19T02:15:23.744Z,71.20
2022-08-19T02:18:29.138Z,71.30
2022-08-19T02:21:34.977Z,71.30
2022-08-19T02:24:40.033Z,71.40
2022-08-19T02:27:47.609Z,71.50
2022-08-19T02:30:54.937Z,71.50
2022-08-19T02:34:00.374Z,71.50
2022-08-19T02:37:05.355Z,71.60
2022-08-19T02:40:12.326Z,71.60
2022-08-19T02:43:21.188Z,71.70
2022-08-19T02:46:28.695Z,71.80
2022-08-19T02:49:35.413Z,71.80
2022-08-19T02:52:40.518Z,71.90
2022-08-19T02:55:49.727Z,72.00
2022-08-19T02:58:57.751Z,72.00
2022-08-19T03:02:02.753Z,72.10
2022-08-19T03:05:09.738Z,72.00
2022-08-19T03:08:15.998Z,72.10
2022-08-19T03:11:22.957Z,72.20
2022-08-19T03:14:30.975Z,72.10
2022-08-19T03:17:35.901Z,72.20
2022-08-19T03:20:45.732Z,72.20
2022-08-19T03:23:51.250Z,72.40
2022-08-19T03:26:59.721Z,72.30
2022-08-19T03:30:08.273Z,72.40
2022-08-19T03:33:18.171Z,72.40
2022-08-19T03:36:31.137Z,72.40
2022-08-19T03:39:36.785Z,72.50
2022-08-19T03:42:48.663Z,72.50
2022-08-19T03:46:07.667Z,72.60
2022-08-19T03:49:14.126Z,72.70
2022-08-19T03:52:19.586Z,72.70
2022-08-19T03:55:24.666Z,72.70
2022-08-19T03:58:30.989Z,72.70
2022-08-19T04:01:39.277Z,72.80
2022-08-19T04:04:46.093Z,72.80
2022-08-19T04:07:51.028Z,72.80
2022-08-19T04:10:55.933Z,72.80
2022-08-19T04:14:01.321Z,72.90
2022-08-19T04:17:12.161Z,72.90
2022-08-19T04:20:17.158Z,72.90
2022-08-19T04:23:22.342Z,72.90
2022-08-19T04:26:33.084Z,73.00
2022-08-19T04:29:40.515Z,73.70
2022-08-19T04:32:48.101Z,73.00
2022-08-19T04:35:55.619Z,73.10
2022-08-19T04:39:03.412Z,73.10
2022-08-19T04:42:20.975Z,73.20
2022-08-19T04:45:43.482Z,73.20
2022-08-19T04:48:51.583Z,73.10
2022-08-19T04:51:57.767Z,73.20
2022-08-19T04:55:02.783Z,73.30
2022-08-19T04:58:07.897Z,73.30
2022-08-19T05:01:14.988Z,73.40
2022-08-19T05:04:23.618Z,73.50
2022-08-19T05:07:28.685Z,73.50
2022-08-19T05:10:34.101Z,73.50
2022-08-19T05:13:39.239Z,73.50
2022-08-19T05:16:46.911Z,73.60
2022-08-19T05:20:06.942Z,73.60
2022-08-19T05:23:22.096Z,73.70
2022-08-19T05:26:28.614Z,73.70
2022-08-19T05:29:36.484Z,73.60
2022-08-19T05:32:41.855Z,73.60
2022-08-19T05:35:49.452Z,73.70
2022-08-19T05:38:54.424Z,73.80
2022-08-19T05:42:01.634Z,73.80
2022-08-19T05:45:07.586Z,73.90
2022-08-19T05:48:13.988Z,73.90
2022-08-19T05:51:21.583Z,73.90
2022-08-19T05:54:28.097Z,74.00
2022-08-19T05:57:33.462Z,73.90
2022-08-19T06:00:38.566Z,73.90
2022-08-19T06:03:43.698Z,74.00
2022-08-19T06:06:52.896Z,74.10
2022-08-19T06:10:00.682Z,74.30
2022-08-19T06:13:06.768Z,74.20
2022-08-19T06:16:11.710Z,74.40
2022-08-19T06:19:18.599Z,74.50
2022-08-19T06:22:26.555Z,74.70
2022-08-19T06:25:31.536Z,74.80
2022-08-19T06:28:36.646Z,74.80
2022-08-19T06:31:46.246Z,74.80
2022-08-19T06:34:51.194Z,75.00
2022-08-19T06:37:58.859Z,75.00
2022-08-19T06:41:08.205Z,75.10
2022-08-19T06:44:13.398Z,75.10
2022-08-19T06:47:23.678Z,75.10
2022-08-19T06:50:33.485Z,75.30
2022-08-19T06:53:48.146Z,75.30
2022-08-19T06:56:53.761Z,75.40
2022-08-19T06:59:58.742Z,75.40
2022-08-19T07:03:07.696Z,75.50
2022-08-19T07:06:32.508Z,75.50
2022-08-19T07:09:54.419Z,75.40
2022-08-19T07:13:05.038Z,75.40
2022-08-19T07:16:11.015Z,75.20
2022-08-19T07:19:18.993Z,75.20
2022-08-19T07:22:24.615Z,75.40
2022-08-19T07:25:33.376Z,75.20
2022-08-19T07:28:40.198Z,75.20
2022-08-19T07:31:57.273Z,75.70
2022-08-19T07:35:04.417Z,75.00
2022-08-19T07:38:09.544Z,75.00
2022-08-19T07:41:19.351Z,74.80
2022-08-19T07:44:24.811Z,74.50
2022-08-19T07:47:48.288Z,74.40
2022-08-19T07:50:56.401Z,74.10
2022-08-19T07:54:01.376Z,73.90
2022-08-19T07:57:09.383Z,73.70
2022-08-19T08:00:15.361Z,73.50
2022-08-19T08:03:43.462Z,73.30
2022-08-19T08:07:00.991Z,73.10
2022-08-19T08:10:20.843Z,72.90
2022-08-19T08:13:29.089Z,72.70
2022-08-19T08:16:35.010Z,72.50
2022-08-19T08:19:42.080Z,72.30
2022-08-19T08:23:00.681Z,72.20
2022-08-19T08:26:05.794Z,72.00
2022-08-19T08:29:13.658Z,71.90
2022-08-19T08:32:19.381Z,71.70
2022-08-19T08:35:26.722Z,72.00
2022-08-19T08:38:36.962Z,71.30
2022-08-19T08:41:50.334Z,71.10
2022-08-19T08:45:03.379Z,70.70
2022-08-19T08:48:23.898Z,70.50
2022-08-19T08:51:35.593Z,70.20
2022-08-19T08:54:49.158Z,70.10
2022-08-19T08:58:06.478Z,69.80
2022-08-19T09:01:15.016Z,69.70
2022-08-19T09:04:20.522Z,69.30
2022-08-19T09:07:42.815Z,69.20
2022-08-19T09:10:54.984Z,68.80
2022-08-19T09:14:29.136Z,68.60
2022-08-19T09:17:40.354Z,68.40
2022-08-19T09:20:45.433Z,68.20
2022-08-19T09:23:51.102Z,67.90
2022-08-19T09:26:57.061Z,67.60
2022-08-19T09:30:02.875Z,67.30
2022-08-19T09:33:10.749Z,67.00
2022-08-19T09:36:31.193Z,66.80
2022-08-19T09:39:39.616Z,66.70
2022-08-19T09:42:50.050Z,66.60
2022-08-19T09:45:56.962Z,66.40
2022-08-19T09:49:06.889Z,66.00
2022-08-19T09:52:13.631Z,65.60
2022-08-19T09:55:19.476Z,65.50
2022-08-19T09:58:28.566Z,65.10
2022-08-19T10:01:35.214Z,65.60
2022-08-19T10:04:55.256Z,64.60
2022-08-19T10:08:02.813Z,64.10
2022-08-19T10:11:27.393Z,64.00
2022-08-19T10:14:35.606Z,63.60
2022-08-19T10:17:40.542Z,63.10
2022-08-19T10:20:55.990Z,62.70
2022-08-19T10:24:04.798Z,62.20
2022-08-19T10:27:10.744Z,61.80
2022-08-19T10:30:17.223Z,61.40
2022-08-19T10:33:38.823Z,61.20
2022-08-19T10:36:56.480Z,61.70
2022-08-19T10:40:06.935Z,60.90
2022-08-19T10:43:12.317Z,60.80
2022-08-19T10:46:19.966Z,60.60
2022-08-19T10:49:25.203Z,60.30
2022-08-19T10:52:38.972Z,60.20
2022-08-19T10:55:56.609Z,59.90
2022-08-19T10:59:04.203Z,59.80
2022-08-19T11:02:13.135Z,59.60
2022-08-19T11:05:18.775Z,59.20
2022-08-19T11:08:27.993Z,59.00
2022-08-19T11:11:33.198Z,58.60
2022-08-19T11:14:43.650Z,58.40
2022-08-19T11:17:48.691Z,58.20
2022-08-19T11:20:53.739Z,58.00
2022-08-19T11:24:03.232Z,57.80
2022-08-19T11:27:11.855Z,57.40
2022-08-19T11:30:17.702Z,57.30
2022-08-19T11:33:22.745Z,57.00
2022-08-19T11:36:27.709Z,56.80
2022-08-19T11:39:37.929Z,56.50
2022-08-19T11:42:58.497Z,56.20
2022-08-19T11:46:04.223Z,56.20
2022-08-19T11:49:14.009Z,56.00
2022-08-19T11:52:19.210Z,55.70
2022-08-19T11:55:27.502Z,55.60
2022-08-19T11:58:32.881Z,55.30
2022-08-19T12:01:38.583Z,55.20
2022-08-19T12:04:43.755Z,55.00
2022-08-19T12:07:48.796Z,54.90
2022-08-19T12:10:59.226Z,54.70
2022-08-19T12:14:04.456Z,54.40
2022-08-19T12:17:10.192Z,54.20
2022-08-19T12:20:18.103Z,54.00
2022-08-19T12:23:23.294Z,53.70
2022-08-19T12:26:32.578Z,53.70
2022-08-19T12:29:37.745Z,53.30
2022-08-19T12:32:43.170Z,53.30
2022-08-19T12:35:49.399Z,53.20
2022-08-19T12:38:55.846Z,53.10
2022-08-19T12:42:03.397Z,53.20
2022-08-19T12:45:09.177Z,53.00
2022-08-19T12:48:33.368Z,53.10
2022-08-19T12:51:39.289Z,53.20
2022-08-19T12:54:44.267Z,53.30
2022-08-19T12:57:51.873Z,53.20
2022-08-19T13:00:57.240Z,53.00
2022-08-19T13:04:02.790Z,53.10
2022-08-19T13:07:07.984Z,53.00
2022-08-19T13:10:16.393Z,52.90
2022-08-19T13:13:27.093Z,52.80
2022-08-19T13:16:32.523Z,52.60
2022-08-19T13:19:41.097Z,52.60
2022-08-19T13:22:46.302Z,52.50
2022-08-19T13:26:00.059Z,52.30
2022-08-19T13:29:19.907Z,52.10
2022-08-19T13:32:37.358Z,52.50
2022-08-19T13:35:42.996Z,52.50
2022-08-19T13:38:47.918Z,52.10
2022-08-19T13:41:52.993Z,51.90
2022-08-19T13:45:00.583Z,51.70
2022-08-19T13:48:09.393Z,51.50
2022-08-19T13:51:14.354Z,51.40
2022-08-19T13:54:19.287Z,51.40
2022-08-19T13:57:24.301Z,51.20
2022-08-19T14:00:34.226Z,51.70
2022-08-19T14:03:40.317Z,50.90
2022-08-19T14:06:45.234Z,51.00
2022-08-19T14:09:50.194Z,50.90
2022-08-19T14:12:59.228Z,50.80
2022-08-19T14:16:11.394Z,50.70
2022-08-19T14:19:16.558Z,50.50
2022-08-19T14:22:22.497Z,51.20
2022-08-19T14:25:31.999Z,50.40
2022-08-19T14:28:37.298Z,50.20
2022-08-19T14:31:45.087Z,50.30
2022-08-19T14:34:50.041Z,50.10
2022-08-19T14:37:56.436Z,50.20
2022-08-19T14:41:11.482Z,50.10
2022-08-19T14:44:16.466Z,49.80
2022-08-19T14:47:24.095Z,50.00
2022-08-19T14:50:29.059Z,50.00
2022-08-19T14:53:34.442Z,50.10
2022-08-19T14:56:39.387Z,49.90
2022-08-19T14:59:44.674Z,49.90
2022-08-19T15:02:52.251Z,50.00
2022-08-19T15:05:57.537Z,49.90
2022-08-19T15:09:04.597Z,50.00
2022-08-19T15:12:11.366Z,49.90
2022-08-19T15:15:19.103Z,50.50
2022-08-19T15:18:26.766Z,49.80
2022-08-19T15:21:33.379Z,49.90
2022-08-19T15:24:47.874Z,49.90
2022-08-19T15:27:53.927Z,50.00
2022-08-19T15:30:59.032Z,50.10
2022-08-19T15:34:07.649Z,50.10
2022-08-19T15:37:15.703Z,50.00
2022-08-19T15:40:21.416Z,50.10
2022-08-19T15:43:26.456Z,50.20
2022-08-19T15:46:34.105Z,50.20
2022-08-19T15:49:41.674Z,50.20
2022-08-19T15:52:50.431Z,50.30
2022-08-19T15:55:55.410Z,50.60
2022-08-19T15:59:12.853Z,50.90
2022-08-19T16:02:32.241Z,51.20
2022-08-19T16:05:52.507Z,51.50
2022-08-19T16:08:58.833Z,51.80
2022-08-19T16:12:05.929Z,52.00
2022-08-19T16:15:13.565Z,52.20
2022-08-19T16:18:18.579Z,52.50
2022-08-19T16:21:32.809Z,52.70
2022-08-19T16:24:37.759Z,53.00
2022-08-19T16:27:46.568Z,53.10
2022-08-19T16:31:08.531Z,53.30
2022-08-19T16:34:14.413Z,53.40
2022-08-19T16:37:23.286Z,53.60
2022-08-19T16:40:28.604Z,53.70
2022-08-19T16:43:33.837Z,53.90
2022-08-19T16:46:41.647Z,54.70
2022-08-19T16:49:53.526Z,54.20
2022-08-19T16:53:03.401Z,54.40
2022-08-19T16:56:09.664Z,54.60
2022-08-19T16:59:15.381Z,54.80
2022-08-19T17:02:22.074Z,55.00
2022-08-19T17:05:27.562Z,55.30
2022-08-19T17:08:35.679Z,55.40
2022-08-19T17:11:42.510Z,55.60
2022-08-19T17:14:48.111Z,55.90
2022-08-19T17:17:53.093Z,56.00
2022-08-19T17:20:58.105Z,56.20
2022-08-19T17:24:08.786Z,56.60
2022-08-19T17:27:13.785Z,57.10
2022-08-19T17:30:18.797Z,57.10
2022-08-19T17:33:24.160Z,57.40
2022-08-19T17:36:31.421Z,57.60
2022-08-19T17:39:39.840Z,57.80
2022-08-19T17:42:45.185Z,58.00
2022-08-19T17:45:50.454Z,58.10
2022-08-19T17:48:57.298Z,58.30
2022-08-19T17:52:02.377Z,58.40
2022-08-19T17:55:11.320Z,58.40
2022-08-19T17:58:16.729Z,58.50
2022-08-19T18:01:24.751Z,58.50
2022-08-19T18:04:31.710Z,58.50
2022-08-19T18:07:36.673Z,58.50
2022-08-19T18:10:44.169Z,58.60
2022-08-19T18:13:50.184Z,58.70
2022-08-19T18:16:55.729Z,58.70
2022-08-19T18:20:00.771Z,58.80
2022-08-19T18:23:44.814Z,59.00
2022-08-19T18:26:33.874Z,59.00
2022-08-19T18:29:40.258Z,59.00
2022-08-19T18:32:49.749Z,59.10
2022-08-19T18:35:55.008Z,59.20
2022-08-19T18:39:12.674Z,59.30
2022-08-19T18:42:33.820Z,59.40
2022-08-19T18:45:53.624Z,59.50
2022-08-19T18:49:08.091Z,59.60
2022-08-19T18:52:13.064Z,59.60
2022-08-19T18:55:18.702Z,59.70
2022-08-19T18:58:28.297Z,59.80
2022-08-19T19:01:36.725Z,60.00
2022-08-19T19:04:41.751Z,60.10
2022-08-19T19:07:46.920Z,60.20
2022-08-19T19:10:51.873Z,60.30
2022-08-19T19:14:00.401Z,60.40
2022-08-19T19:17:09.354Z,60.50
2022-08-19T19:20:14.310Z,60.70
2022-08-19T19:23:20.616Z,60.80
2022-08-19T19:26:26.018Z,60.80
2022-08-19T19:29:35.730Z,61.00
2022-08-19T19:32:41.154Z,61.20
2022-08-19T19:35:47.175Z,61.30
2022-08-19T19:38:52.447Z,61.40
2022-08-19T19:41:57.454Z,61.60
2022-08-19T19:45:05.302Z,61.70
2022-08-19T19:48:13.766Z,61.90
2022-08-19T19:51:19.904Z,61.90
2022-08-19T19:54:25.113Z,62.10
2022-08-19T19:57:30.454Z,62.20
2022-08-19T20:00:38.580Z,62.30
2022-08-19T20:03:44.355Z,62.60
2022-08-19T20:06:49.745Z,62.60
2022-08-19T20:09:59.772Z,63.40
2022-08-19T20:13:05.930Z,62.90
2022-08-19T20:16:13.889Z,63.00
2022-08-19T20:19:21.043Z,63.10
2022-08-19T20:22:26.079Z,63.30
2022-08-19T20:25:32.270Z,63.50
2022-08-19T20:28:37.299Z,63.70
2022-08-19T20:31:59.155Z,63.90
2022-08-19T20:35:06.248Z,64.20
2022-08-19T20:38:11.351Z,64.20
2022-08-19T20:41:17.513Z,64.50
2022-08-19T20:44:23.305Z,64.60
2022-08-19T20:47:32.701Z,64.70
2022-08-19T20:50:39.099Z,65.00
2022-08-19T20:53:45.074Z,65.10
2022-08-19T20:56:51.214Z,65.20
2022-08-19T20:59:56.166Z,65.30
2022-08-19T21:03:03.933Z,65.40
2022-08-19T21:06:09.538Z,65.60
2022-08-19T21:09:17.723Z,65.60
2022-08-19T21:12:22.828Z,65.70
2022-08-19T21:15:27.974Z,65.80
2022-08-19T21:18:35.630Z,65.90
2022-08-19T21:21:40.643Z,66.00
2022-08-19T21:24:45.860Z,66.10
2022-08-19T21:27:50.859Z,66.30
2022-08-19T21:30:56.568Z,66.40
2022-08-19T21:34:06.806Z,66.40
2022-08-19T21:37:13.953Z,66.50
2022-08-19T21:40:30.127Z,66.60
2022-08-19T21:43:35.431Z,66.60
2022-08-19T21:46:40.430Z,66.70
2022-08-19T21:49:48.010Z,66.80
2022-08-19T21:52:54.401Z,66.90
2022-08-19T21:55:59.353Z,67.00
2022-08-19T21:59:04.287Z,67.00
2022-08-19T22:02:19.534Z,67.10
2022-08-19T22:05:28.786Z,67.20
2022-08-19T22:08:34.053Z,67.30
2022-08-19T22:11:39.769Z,67.30
2022-08-19T22:14:44.690Z,67.40
2022-08-19T22:17:50.909Z,67.50
2022-08-19T22:20:58.441Z,67.60
2022-08-19T22:24:04.086Z,67.80
2022-08-19T22:27:09.190Z,68.00
2022-08-19T22:30:17.349Z,68.10
2022-08-19T22:33:23.955Z,68.40
2022-08-19T22:36:31.697Z,68.40
2022-08-19T22:39:37.855Z,68.70
2022-08-19T22:42:43.094Z,68.80
2022-08-19T22:45:49.486Z,68.90
2022-08-19T22:48:56.678Z,69.00
2022-08-19T22:52:18.524Z,69.20
2022-08-19T22:55:23.466Z,69.30
2022-08-19T22:58:29.761Z,69.40
2022-08-19T23:01:35.971Z,69.50
2022-08-19T23:04:40.950Z,69.60
2022-08-19T23:07:52.231Z,69.70
2022-08-19T23:10:57.818Z,69.80
2022-08-19T23:14:03.745Z,69.90
2022-08-19T23:17:10.442Z,70.00
2022-08-19T23:20:17.779Z,70.10
2022-08-19T23:23:26.039Z,70.30
2022-08-19T23:26:35.585Z,70.40
2022-08-19T23:29:53.442Z,70.40
2022-08-19T23:32:59.501Z,70.50
2022-08-19T23:36:08.482Z,70.60
2022-08-19T23:39:16.092Z,70.80
2022-08-19T23:42:21.453Z,70.90
2022-08-19T23:45:28.265Z,70.90
2022-08-19T23:48:38.575Z,71.00
2022-08-19T23:51:43.752Z,71.10
2022-08-19T23:54:51.253Z,71.10
2022-08-19T23:57:56.865Z,71.20
